Darstellungsparameter: Aktuell verwendete Einstellungen:
Skalierung der Graphiken ... ?
xyx+y,   Skalierungsfaktor:      Skalierung: Modus: x, Faktor: 1
Darstellungszeitraum ... ?
Vom - - bis: - -   Zeitraum: 03.09.2019 - 04.09.2019
Min/Max/Avg-Anzeige ... ?
Zeige MMA aktuell
Zeige MMA Monat
Zeige MMA alles
Zeige --A aktuell
Zeige --A Monat
Zeige --A alles
Keine MMA-Anzeige
MMA:
Keine MMA-Graphiken
MMA-Basis: 03.09.2019 - 04.09.2019
Quicknavigation für Darstellung... ?
Tage:      1T, 2T, 3T, 5T -1T -2T -3T -5T +1T +2T +3T +5T
Wochen: 1W, 2W, 3W -1W -2W -3W +1W +2W +3W
Monate: 1M, 3M, 6M -1M -3M -6M +1M +3M +6M
Jahre:    1J, 3J, 5J, 10J -1J -3J -5J -10J +1J +3J +5J +10J
Nutze für die Darstellung ... ?
Originaldaten oder Mittelwerte auf ...
Stundenbasis Tagesbasis Wochenbasis
Monatsbasis Jahresbasis      Datenbasis: Original-Daten
Darstellen als:
Statistik (Auto) Statistik J:M      Darstellung:
Zur Graphik,    zurück zur Übersicht aller Sensoren.
 
Tabellarische Datenbersicht: ?
 
Sensor: Nr:Datum:Temp:Feuchte:Taupunkt:
Aussen-T/F 1 03-09-2019 00:00:00 12.7 C 74 % 8.19 C
2 03-09-2019 00:05:00 12.7 C 74 % 8.19 C
3 03-09-2019 00:10:00 12.6 C 74 % 8.09 C
4 03-09-2019 00:15:00 12.5 C 74 % 8 C
5 03-09-2019 00:20:00 12.4 C 74 % 7.9 C
6 03-09-2019 00:25:00 12.4 C 75 % 8.1 C
7 03-09-2019 00:30:00 12.3 C 75 % 8 C
8 03-09-2019 00:35:00 12.3 C 75 % 8 C
9 03-09-2019 00:40:00 12.2 C 75 % 7.91 C
10 03-09-2019 00:45:00 12.2 C 76 % 8.1 C
11 03-09-2019 00:50:00 12.2 C 76 % 8.1 C
12 03-09-2019 00:55:00 12.2 C 76 % 8.1 C
13 03-09-2019 01:00:00 12.2 C 76 % 8.1 C
14 03-09-2019 01:05:00 12.2 C 76 % 8.1 C
15 03-09-2019 01:10:00 12.2 C 76 % 8.1 C
16 03-09-2019 01:15:00 12.2 C 77 % 8.29 C
17 03-09-2019 01:20:00 12.3 C 77 % 8.39 C
18 03-09-2019 01:25:00 12.3 C 77 % 8.39 C
19 03-09-2019 01:30:00 12.2 C 76 % 8.1 C
20 03-09-2019 01:35:00 12.2 C 77 % 8.29 C
21 03-09-2019 01:40:00 12.2 C 77 % 8.29 C
22 03-09-2019 01:45:00 12 C 76 % 7.91 C
23 03-09-2019 01:50:00 11.8 C 76 % 7.71 C
24 03-09-2019 01:55:00 11.7 C 77 % 7.81 C
25 03-09-2019 02:00:00 11.4 C 77 % 7.52 C
Sensor: Nr:Datum:Temp:Feuchte:Taupunkt:
Aussen-T/F 26 03-09-2019 02:05:00 11.3 C 78 % 7.61 C
27 03-09-2019 02:10:00 11.2 C 78 % 7.51 C
28 03-09-2019 02:15:00 11.1 C 78 % 7.41 C
29 03-09-2019 02:20:00 11 C 79 % 7.5 C
30 03-09-2019 02:25:00 10.9 C 79 % 7.41 C
31 03-09-2019 02:30:00 10.8 C 80 % 7.49 C
32 03-09-2019 02:35:00 10.7 C 80 % 7.4 C
33 03-09-2019 02:40:00 10.7 C 80 % 7.4 C
34 03-09-2019 02:45:00 10.6 C 80 % 7.3 C
35 03-09-2019 02:50:00 10.6 C 80 % 7.3 C
36 03-09-2019 02:55:00 10.4 C 80 % 7.1 C
37 03-09-2019 03:00:00 10.4 C 80 % 7.1 C
38 03-09-2019 03:05:00 10.4 C 81 % 7.28 C
39 03-09-2019 03:10:00 10.3 C 81 % 7.19 C
40 03-09-2019 03:15:00 10.2 C 81 % 7.09 C
41 03-09-2019 03:20:00 10.2 C 81 % 7.09 C
42 03-09-2019 03:25:00 10.2 C 82 % 7.27 C
43 03-09-2019 03:30:00 10.2 C 82 % 7.27 C
44 03-09-2019 03:35:00 10.1 C 82 % 7.17 C
45 03-09-2019 03:40:00 10.1 C 82 % 7.17 C
46 03-09-2019 03:45:00 10 C 82 % 7.07 C
47 03-09-2019 03:50:00 10 C 82 % 7.07 C
48 03-09-2019 03:55:00 10 C 83 % 7.25 C
49 03-09-2019 04:00:00 10.1 C 83 % 7.35 C
50 03-09-2019 04:05:00 10.1 C 84 % 7.52 C
Sensor: Nr:Datum:Temp:Feuchte:Taupunkt:
Aussen-T/F 51 03-09-2019 04:10:00 10.1 C 84 % 7.52 C
52 03-09-2019 04:15:00 10.1 C 84 % 7.52 C
53 03-09-2019 04:20:00 10.1 C 84 % 7.52 C
54 03-09-2019 04:25:00 10.1 C 84 % 7.52 C
55 03-09-2019 04:30:00 10.1 C 84 % 7.52 C
56 03-09-2019 04:35:00 10.1 C 84 % 7.52 C
57 03-09-2019 04:40:00 10.1 C 84 % 7.52 C
58 03-09-2019 04:45:00 10.1 C 84 % 7.52 C
59 03-09-2019 04:50:00 10.1 C 84 % 7.52 C
60 03-09-2019 04:55:00 9.9 C 83 % 7.15 C
61 03-09-2019 05:00:00 9.9 C 83 % 7.15 C
62 03-09-2019 05:05:00 9.7 C 83 % 6.96 C
63 03-09-2019 05:10:00 9.6 C 84 % 7.03 C
64 03-09-2019 05:15:00 9.5 C 84 % 6.94 C
65 03-09-2019 05:20:00 9.4 C 85 % 7.01 C
66 03-09-2019 05:25:00 9.4 C 85 % 7.01 C
67 03-09-2019 05:30:00 9.3 C 85 % 6.91 C
68 03-09-2019 05:35:00 9.2 C 85 % 6.81 C
69 03-09-2019 05:40:00 9.3 C 86 % 7.08 C
70 03-09-2019 05:45:00 9.3 C 87 % 7.25 C
71 03-09-2019 05:50:00 9.4 C 87 % 7.35 C
72 03-09-2019 05:55:00 9.4 C 87 % 7.35 C
73 03-09-2019 06:00:00 9.3 C 87 % 7.25 C
74 03-09-2019 06:05:00 9.3 C 87 % 7.25 C
75 03-09-2019 06:10:00 9.2 C 86 % 6.98 C
Sensor: Nr:Datum:Temp:Feuchte:Taupunkt:
Aussen-T/F 76 03-09-2019 06:15:00 9.1 C 86 % 6.89 C
77 03-09-2019 06:20:00 9 C 87 % 6.96 C
78 03-09-2019 06:25:00 8.9 C 87 % 6.86 C
79 03-09-2019 06:30:00 8.8 C 87 % 6.76 C
80 03-09-2019 06:35:00 8.8 C 87 % 6.76 C
81 03-09-2019 06:40:00 8.7 C 87 % 6.66 C
82 03-09-2019 06:45:00 8.7 C 88 % 6.83 C
83 03-09-2019 06:50:00 8.6 C 88 % 6.73 C
84 03-09-2019 06:55:00 8.6 C 88 % 6.73 C
85 03-09-2019 07:00:00 8.5 C 88 % 6.63 C
86 03-09-2019 07:05:00 8.6 C 89 % 6.89 C
87 03-09-2019 07:10:00 8.6 C 88 % 6.73 C
88 03-09-2019 07:15:00 8.6 C 89 % 6.89 C
89 03-09-2019 07:20:00 8.6 C 89 % 6.89 C
90 03-09-2019 07:25:00 8.7 C 89 % 6.99 C
91 03-09-2019 07:30:00 8.7 C 89 % 6.99 C
92 03-09-2019 07:35:00 8.7 C 89 % 6.99 C
93 03-09-2019 07:40:00 8.7 C 89 % 6.99 C
94 03-09-2019 07:45:00 8.7 C 89 % 6.99 C
95 03-09-2019 07:50:00 8.7 C 89 % 6.99 C
96 03-09-2019 07:55:00 8.8 C 89 % 7.09 C
97 03-09-2019 08:00:00 8.8 C 89 % 7.09 C
98 03-09-2019 08:05:00 8.8 C 89 % 7.09 C
99 03-09-2019 08:10:00 8.8 C 89 % 7.09 C
100 03-09-2019 08:15:00 8.9 C 90 % 7.35 C
Sensor: Nr:Datum:Temp:Feuchte:Taupunkt:
Aussen-T/F 101 03-09-2019 08:20:00 8.9 C 90 % 7.35 C
102 03-09-2019 08:25:00 9 C 90 % 7.45 C
103 03-09-2019 08:30:00 9.1 C 90 % 7.55 C
104 03-09-2019 08:35:00 9.2 C 90 % 7.65 C
105 03-09-2019 08:40:00 9.3 C 90 % 7.75 C
106 03-09-2019 08:45:00 9.3 C 90 % 7.75 C
107 03-09-2019 08:50:00 9.4 C 90 % 7.85 C
108 03-09-2019 08:55:00 9.5 C 90 % 7.94 C
109 03-09-2019 09:00:00 9.6 C 90 % 8.04 C
110 03-09-2019 09:05:00 9.7 C 90 % 8.14 C
111 03-09-2019 09:10:00 9.8 C 90 % 8.24 C
112 03-09-2019 09:15:00 9.9 C 90 % 8.34 C
113 03-09-2019 09:20:00 10.1 C 89 % 8.37 C
114 03-09-2019 09:25:00 10.2 C 89 % 8.47 C
115 03-09-2019 09:30:00 10.3 C 89 % 8.57 C
116 03-09-2019 09:35:00 10.6 C 89 % 8.86 C
117 03-09-2019 09:40:00 10.8 C 88 % 8.89 C
118 03-09-2019 09:45:00 11 C 88 % 9.09 C
119 03-09-2019 09:50:00 11.2 C 88 % 9.29 C
120 03-09-2019 09:55:00 11.3 C 87 % 9.22 C
121 03-09-2019 10:00:00 11.6 C 87 % 9.51 C
122 03-09-2019 10:05:00 11.7 C 86 % 9.44 C
123 03-09-2019 10:10:00 12 C 86 % 9.73 C
124 03-09-2019 10:15:00 12.3 C 85 % 9.85 C
125 03-09-2019 10:20:00 12.7 C 85 % 10.25 C
Sensor: Nr:Datum:Temp:Feuchte:Taupunkt:
Aussen-T/F 126 03-09-2019 10:25:00 13 C 84 % 10.36 C
127 03-09-2019 10:30:00 13.3 C 82 % 10.3 C
128 03-09-2019 10:35:00 13.6 C 80 % 10.22 C
129 03-09-2019 10:40:00 14.1 C 78 % 10.33 C
130 03-09-2019 10:45:00 14.5 C 77 % 10.52 C
131 03-09-2019 10:50:00 14.8 C 75 % 10.42 C
132 03-09-2019 10:55:00 15.1 C 74 % 10.5 C
133 03-09-2019 11:00:00 15.5 C 71 % 10.27 C
134 03-09-2019 11:05:00 15.8 C 70 % 10.34 C
135 03-09-2019 11:10:00 16.1 C 70 % 10.63 C
136 03-09-2019 11:15:00 16.3 C 67 % 10.17 C
137 03-09-2019 11:20:00 16.7 C 65 % 10.09 C
138 03-09-2019 11:25:00 17.2 C 63 % 10.1 C
139 03-09-2019 11:30:00 17.7 C 61 % 10.09 C
140 03-09-2019 11:35:00 18.1 C 61 % 10.47 C
141 03-09-2019 11:40:00 18.3 C 60 % 10.41 C
142 03-09-2019 11:45:00 18.5 C 58 % 10.09 C
143 03-09-2019 11:50:00 18.8 C 57 % 10.11 C
144 03-09-2019 11:55:00 19.1 C 56 % 10.12 C
145 03-09-2019 12:00:00 19.3 C 57 % 10.58 C
146 03-09-2019 12:05:00 19.5 C 54 % 9.95 C
147 03-09-2019 12:10:00 19.6 C 55 % 10.32 C
148 03-09-2019 12:15:00 19.7 C 56 % 10.68 C
149 03-09-2019 12:20:00 19.8 C 54 % 10.23 C
150 03-09-2019 12:25:00 19.9 C 53 % 10.04 C
Sensor: Nr:Datum:Temp:Feuchte:Taupunkt:
Aussen-T/F 151 03-09-2019 12:30:00 20 C 53 % 10.14 C
152 03-09-2019 12:35:00 20.1 C 52 % 9.94 C
153 03-09-2019 12:40:00 20.3 C 53 % 10.41 C
154 03-09-2019 12:45:00 20.3 C 52 % 10.13 C
155 03-09-2019 12:50:00 20.4 C 51 % 9.93 C
156 03-09-2019 12:55:00 20.6 C 52 % 10.41 C
157 03-09-2019 13:00:00 20.8 C 53 % 10.88 C
158 03-09-2019 13:05:00 20.8 C 50 % 10 C
159 03-09-2019 13:10:00 20.8 C 51 % 10.3 C
160 03-09-2019 13:15:00 21 C 50 % 10.19 C
161 03-09-2019 13:20:00 21.2 C 50 % 10.37 C
162 03-09-2019 13:25:00 21.1 C 50 % 10.28 C
163 03-09-2019 13:30:00 21.2 C 50 % 10.37 C
164 03-09-2019 13:35:00 21.4 C 48 % 9.94 C
165 03-09-2019 13:40:00 21.6 C 50 % 10.74 C
166 03-09-2019 13:45:00 21.6 C 49 % 10.44 C
167 03-09-2019 13:50:00 21.7 C 48 % 10.22 C
168 03-09-2019 13:55:00 21.8 C 47 % 9.99 C
169 03-09-2019 14:00:00 21.9 C 46 % 9.77 C
170 03-09-2019 14:05:00 22.1 C 46 % 9.95 C
171 03-09-2019 14:10:00 22.2 C 47 % 10.36 C
172 03-09-2019 14:15:00 22.3 C 45 % 9.8 C
173 03-09-2019 14:20:00 22.3 C 46 % 10.13 C
174 03-09-2019 14:25:00 22.6 C 46 % 10.4 C
175 03-09-2019 14:30:00 22.7 C 45 % 10.16 C
Sensor: Nr:Datum:Temp:Feuchte:Taupunkt:
Aussen-T/F 176 03-09-2019 14:35:00 22.7 C 45 % 10.16 C
177 03-09-2019 14:40:00 22.9 C 46 % 10.67 C
178 03-09-2019 14:45:00 23.2 C 45 % 10.62 C
179 03-09-2019 14:50:00 23.3 C 44 % 10.37 C
180 03-09-2019 14:55:00 23.5 C 45 % 10.89 C
181 03-09-2019 15:00:00 23.6 C 45 % 10.98 C
182 03-09-2019 15:05:00 23.5 C 45 % 10.89 C
183 03-09-2019 15:10:00 23.6 C 45 % 10.98 C
184 03-09-2019 15:15:00 23.7 C 45 % 11.07 C
185 03-09-2019 15:20:00 23.8 C 45 % 11.16 C
186 03-09-2019 15:25:00 24 C 45 % 11.34 C
187 03-09-2019 15:30:00 24.2 C 45 % 11.52 C
188 03-09-2019 15:35:00 24.2 C 45 % 11.52 C
189 03-09-2019 15:40:00 23.9 C 47 % 11.91 C
190 03-09-2019 15:45:00 23.7 C 47 % 11.73 C
191 03-09-2019 15:50:00 23.5 C 48 % 11.86 C
192 03-09-2019 15:55:00 23.3 C 48 % 11.68 C
193 03-09-2019 16:00:00 23.3 C 50 % 12.3 C
194 03-09-2019 16:05:00 23.3 C 49 % 11.99 C
195 03-09-2019 16:10:00 23.2 C 50 % 12.21 C
196 03-09-2019 16:15:00 23.2 C 49 % 11.9 C
197 03-09-2019 16:20:00 23.1 C 50 % 12.11 C
198 03-09-2019 16:25:00 23.1 C 51 % 12.42 C
199 03-09-2019 16:30:00 23.6 C 51 % 12.88 C
200 03-09-2019 16:35:00 24.1 C 49 % 12.72 C
Sensor: Nr:Datum:Temp:Feuchte:Taupunkt:
Aussen-T/F 201 03-09-2019 16:40:00 24.3 C 49 % 12.91 C
202 03-09-2019 16:45:00 24.2 C 49 % 12.81 C
203 03-09-2019 16:50:00 23.8 C 50 % 12.76 C
204 03-09-2019 16:55:00 23.8 C 51 % 13.06 C
205 03-09-2019 17:00:00 23.7 C 51 % 12.97 C
206 03-09-2019 17:05:00 23.3 C 51 % 12.6 C
207 03-09-2019 17:10:00 23.1 C 52 % 12.71 C
208 03-09-2019 17:15:00 23.3 C 52 % 12.9 C
209 03-09-2019 17:20:00 23.6 C 52 % 13.17 C
210 03-09-2019 17:25:00 23.7 C 51 % 12.97 C
211 03-09-2019 17:30:00 23.8 C 51 % 13.06 C
212 03-09-2019 17:35:00 23.8 C 50 % 12.76 C
213 03-09-2019 17:40:00 23.9 C 51 % 13.15 C
214 03-09-2019 17:45:00 23.9 C 50 % 12.85 C
215 03-09-2019 17:50:00 23.9 C 50 % 12.85 C
216 03-09-2019 17:55:00 23.8 C 50 % 12.76 C
217 03-09-2019 18:00:00 23.7 C 51 % 12.97 C
218 03-09-2019 18:05:00 23.6 C 51 % 12.88 C
219 03-09-2019 18:10:00 23.8 C 51 % 13.06 C
220 03-09-2019 18:15:00 23.8 C 51 % 13.06 C
221 03-09-2019 18:20:00 23.6 C 52 % 13.17 C
222 03-09-2019 18:25:00 23.4 C 52 % 12.99 C
223 03-09-2019 18:30:00 23.2 C 52 % 12.8 C
224 03-09-2019 18:35:00 23.1 C 53 % 13 C
225 03-09-2019 18:40:00 22.9 C 54 % 13.1 C
Sensor: Nr:Datum:Temp:Feuchte:Taupunkt:
Aussen-T/F 226 03-09-2019 18:45:00 22.8 C 54 % 13.01 C
227 03-09-2019 18:50:00 22.6 C 54 % 12.83 C
228 03-09-2019 18:55:00 22.2 C 56 % 13.01 C
229 03-09-2019 19:00:00 21.8 C 56 % 12.64 C
230 03-09-2019 19:05:00 21.6 C 57 % 12.72 C
231 03-09-2019 19:10:00 21.4 C 58 % 12.8 C
232 03-09-2019 19:15:00 21.4 C 58 % 12.8 C
233 03-09-2019 19:20:00 21.4 C 59 % 13.06 C
234 03-09-2019 19:25:00 21.4 C 59 % 13.06 C
235 03-09-2019 19:30:00 21.3 C 58 % 12.71 C
236 03-09-2019 19:35:00 21.1 C 59 % 12.78 C
237 03-09-2019 19:40:00 20.8 C 59 % 12.5 C
238 03-09-2019 19:45:00 20.6 C 60 % 12.57 C
239 03-09-2019 19:50:00 20.4 C 61 % 12.63 C
240 03-09-2019 19:55:00 20.2 C 61 % 12.44 C
241 03-09-2019 20:00:00 20.1 C 62 % 12.6 C
242 03-09-2019 20:05:00 19.9 C 62 % 12.41 C
243 03-09-2019 20:10:00 19.7 C 63 % 12.46 C
244 03-09-2019 20:15:00 19.6 C 64 % 12.61 C
245 03-09-2019 20:20:00 19.4 C 64 % 12.42 C
246 03-09-2019 20:25:00 19.2 C 65 % 12.47 C
247 03-09-2019 20:30:00 18.9 C 66 % 12.41 C
248 03-09-2019 20:35:00 18.6 C 67 % 12.36 C
249 03-09-2019 20:40:00 18.2 C 68 % 12.2 C
250 03-09-2019 20:45:00 17.9 C 69 % 12.14 C
Sensor: Nr:Datum:Temp:Feuchte:Taupunkt:
Aussen-T/F 251 03-09-2019 20:50:00 17.6 C 70 % 12.07 C
252 03-09-2019 20:55:00 17.3 C 71 % 12 C
253 03-09-2019 21:00:00 17.1 C 72 % 12.02 C
254 03-09-2019 21:05:00 16.9 C 73 % 12.03 C
255 03-09-2019 21:10:00 16.8 C 73 % 11.94 C
256 03-09-2019 21:15:00 16.6 C 74 % 11.95 C
257 03-09-2019 21:20:00 16.4 C 74 % 11.76 C
258 03-09-2019 21:25:00 16.3 C 75 % 11.86 C
259 03-09-2019 21:30:00 16.2 C 76 % 11.97 C
260 03-09-2019 21:35:00 16.1 C 76 % 11.87 C
261 03-09-2019 21:40:00 16 C 76 % 11.77 C
262 03-09-2019 21:45:00 15.9 C 77 % 11.88 C
263 03-09-2019 21:50:00 15.8 C 77 % 11.78 C
264 03-09-2019 21:55:00 15.8 C 77 % 11.78 C
265 03-09-2019 22:00:00 15.7 C 78 % 11.88 C
266 03-09-2019 22:05:00 15.7 C 78 % 11.88 C
267 03-09-2019 22:10:00 15.6 C 78 % 11.78 C
268 03-09-2019 22:15:00 15.6 C 78 % 11.78 C
269 03-09-2019 22:20:00 15.5 C 79 % 11.88 C
270 03-09-2019 22:25:00 15.4 C 79 % 11.78 C
271 03-09-2019 22:30:00 15.3 C 79 % 11.68 C
272 03-09-2019 22:35:00 15.2 C 80 % 11.78 C
273 03-09-2019 22:40:00 15.2 C 80 % 11.78 C
274 03-09-2019 22:45:00 15.1 C 80 % 11.68 C
275 03-09-2019 22:50:00 14.9 C 81 % 11.67 C
Sensor: Nr:Datum:Temp:Feuchte:Taupunkt:
Aussen-T/F 276 03-09-2019 22:55:00 14.8 C 81 % 11.57 C
277 03-09-2019 23:00:00 14.7 C 81 % 11.48 C
278 03-09-2019 23:05:00 14.6 C 82 % 11.56 C
279 03-09-2019 23:10:00 14.4 C 82 % 11.37 C
280 03-09-2019 23:15:00 14.3 C 82 % 11.27 C
281 03-09-2019 23:20:00 14.2 C 83 % 11.36 C
282 03-09-2019 23:25:00 14.1 C 83 % 11.26 C
283 03-09-2019 23:30:00 13.9 C 84 % 11.24 C
284 03-09-2019 23:35:00 13.9 C 84 % 11.24 C
285 03-09-2019 23:40:00 13.8 C 84 % 11.15 C
286 03-09-2019 23:45:00 13.7 C 85 % 11.23 C
287 03-09-2019 23:50:00 13.6 C 85 % 11.13 C
288 03-09-2019 23:55:00 13.4 C 85 % 10.93 C
289 04-09-2019 00:00:00 13.4 C 86 % 11.11 C
290 04-09-2019 00:05:00 13.3 C 86 % 11.01 C
291 04-09-2019 00:10:00 13.3 C 86 % 11.01 C
292 04-09-2019 00:15:00 13.2 C 86 % 10.91 C
293 04-09-2019 00:20:00 13.1 C 87 % 10.99 C
294 04-09-2019 00:25:00 13.1 C 87 % 10.99 C
295 04-09-2019 00:30:00 13 C 87 % 10.89 C
296 04-09-2019 00:35:00 12.9 C 87 % 10.79 C
297 04-09-2019 00:40:00 12.9 C 88 % 10.96 C
298 04-09-2019 00:45:00 12.9 C 88 % 10.96 C
299 04-09-2019 00:50:00 12.8 C 88 % 10.86 C
300 04-09-2019 00:55:00 12.7 C 88 % 10.77 C
Sensor: Nr:Datum:Temp:Feuchte:Taupunkt:
Aussen-T/F 301 04-09-2019 01:00:00 12.7 C 88 % 10.77 C
302 04-09-2019 01:05:00 12.6 C 88 % 10.67 C
303 04-09-2019 01:10:00 12.5 C 89 % 10.74 C
304 04-09-2019 01:15:00 12.4 C 89 % 10.64 C
305 04-09-2019 01:20:00 12.4 C 89 % 10.64 C
306 04-09-2019 01:25:00 12.3 C 90 % 10.71 C
307 04-09-2019 01:30:00 12.3 C 90 % 10.71 C
308 04-09-2019 01:35:00 12.3 C 90 % 10.71 C
309 04-09-2019 01:40:00 12.2 C 90 % 10.61 C
310 04-09-2019 01:45:00 12.2 C 90 % 10.61 C
311 04-09-2019 01:50:00 12.2 C 90 % 10.61 C
312 04-09-2019 01:55:00 12.1 C 90 % 10.51 C
313 04-09-2019 02:00:00 12.1 C 90 % 10.51 C
314 04-09-2019 02:05:00 12 C 90 % 10.41 C
315 04-09-2019 02:10:00 12 C 90 % 10.41 C
316 04-09-2019 02:15:00 11.9 C 90 % 10.31 C
317 04-09-2019 02:20:00 11.9 C 91 % 10.48 C
318 04-09-2019 02:25:00 11.9 C 91 % 10.48 C
319 04-09-2019 02:30:00 11.9 C 91 % 10.48 C
320 04-09-2019 02:35:00 11.8 C 91 % 10.38 C
321 04-09-2019 02:40:00 11.8 C 91 % 10.38 C
322 04-09-2019 02:45:00 11.7 C 91 % 10.28 C
323 04-09-2019 02:50:00 11.7 C 91 % 10.28 C
324 04-09-2019 02:55:00 11.6 C 91 % 10.18 C
325 04-09-2019 03:00:00 11.6 C 91 % 10.18 C
Sensor: Nr:Datum:Temp:Feuchte:Taupunkt:
Aussen-T/F 326 04-09-2019 03:05:00 11.5 C 92 % 10.25 C
327 04-09-2019 03:10:00 11.4 C 92 % 10.15 C
328 04-09-2019 03:15:00 11.4 C 92 % 10.15 C
329 04-09-2019 03:20:00 11.4 C 92 % 10.15 C
330 04-09-2019 03:25:00 11.3 C 92 % 10.05 C
331 04-09-2019 03:30:00 11.3 C 92 % 10.05 C
332 04-09-2019 03:35:00 11.3 C 92 % 10.05 C
333 04-09-2019 03:40:00 11.2 C 92 % 9.95 C
334 04-09-2019 03:45:00 11.2 C 92 % 9.95 C
335 04-09-2019 03:50:00 11.2 C 92 % 9.95 C
336 04-09-2019 03:55:00 11.1 C 92 % 9.85 C
337 04-09-2019 04:00:00 11 C 92 % 9.75 C
338 04-09-2019 04:05:00 10.9 C 92 % 9.65 C
339 04-09-2019 04:10:00 10.8 C 92 % 9.55 C
340 04-09-2019 04:15:00 10.8 C 92 % 9.55 C
341 04-09-2019 04:20:00 10.7 C 92 % 9.45 C
342 04-09-2019 04:25:00 10.7 C 93 % 9.62 C
343 04-09-2019 04:30:00 10.7 C 93 % 9.62 C
344 04-09-2019 04:35:00 10.6 C 93 % 9.52 C
345 04-09-2019 04:40:00 10.6 C 93 % 9.52 C
346 04-09-2019 04:45:00 10.7 C 93 % 9.62 C
347 04-09-2019 04:50:00 10.7 C 93 % 9.62 C
348 04-09-2019 04:55:00 10.7 C 93 % 9.62 C
349 04-09-2019 05:00:00 10.6 C 93 % 9.52 C
350 04-09-2019 05:05:00 10.6 C 93 % 9.52 C
Sensor: Nr:Datum:Temp:Feuchte:Taupunkt:
Aussen-T/F 351 04-09-2019 05:10:00 10.4 C 93 % 9.32 C
352 04-09-2019 05:15:00 10.4 C 93 % 9.32 C
353 04-09-2019 05:20:00 10.4 C 94 % 9.48 C
354 04-09-2019 05:25:00 10.4 C 93 % 9.32 C
355 04-09-2019 05:30:00 10.3 C 94 % 9.38 C
356 04-09-2019 05:35:00 10.3 C 94 % 9.38 C
357 04-09-2019 05:40:00 10.3 C 94 % 9.38 C
358 04-09-2019 05:45:00 10.3 C 94 % 9.38 C
359 04-09-2019 05:50:00 10.2 C 94 % 9.28 C
360 04-09-2019 05:55:00 10.2 C 94 % 9.28 C
361 04-09-2019 06:00:00 10.2 C 94 % 9.28 C
362 04-09-2019 06:05:00 10.1 C 94 % 9.18 C
363 04-09-2019 06:10:00 10.1 C 94 % 9.18 C
364 04-09-2019 06:15:00 10.1 C 94 % 9.18 C
365 04-09-2019 06:20:00 10 C 94 % 9.08 C
366 04-09-2019 06:25:00 10 C 94 % 9.08 C
367 04-09-2019 06:30:00 10.1 C 94 % 9.18 C
368 04-09-2019 06:35:00 10.2 C 94 % 9.28 C
369 04-09-2019 06:40:00 10.3 C 95 % 9.54 C
370 04-09-2019 06:45:00 10.3 C 95 % 9.54 C
371 04-09-2019 06:50:00 10.3 C 95 % 9.54 C
372 04-09-2019 06:55:00 10.2 C 94 % 9.28 C
373 04-09-2019 07:00:00 10.2 C 94 % 9.28 C
374 04-09-2019 07:05:00 10.1 C 94 % 9.18 C
375 04-09-2019 07:10:00 10.1 C 94 % 9.18 C
Sensor: Nr:Datum:Temp:Feuchte:Taupunkt:
Aussen-T/F 376 04-09-2019 07:15:00 10.1 C 95 % 9.34 C
377 04-09-2019 07:20:00 10.1 C 95 % 9.34 C
378 04-09-2019 07:25:00 10.1 C 95 % 9.34 C
379 04-09-2019 07:30:00 10 C 95 % 9.24 C
380 04-09-2019 07:35:00 10 C 95 % 9.24 C
381 04-09-2019 07:40:00 10.1 C 95 % 9.34 C
382 04-09-2019 07:45:00 10.1 C 95 % 9.34 C
383 04-09-2019 07:50:00 10.1 C 95 % 9.34 C
384 04-09-2019 07:55:00 10.1 C 95 % 9.34 C
385 04-09-2019 08:00:00 10.2 C 95 % 9.44 C
386 04-09-2019 08:05:00 10.2 C 95 % 9.44 C
387 04-09-2019 08:10:00 10.3 C 95 % 9.54 C
388 04-09-2019 08:15:00 10.3 C 95 % 9.54 C
389 04-09-2019 08:20:00 10.4 C 95 % 9.63 C
390 04-09-2019 08:25:00 10.5 C 95 % 9.73 C
391 04-09-2019 08:30:00 10.6 C 95 % 9.83 C
392 04-09-2019 08:35:00 10.7 C 95 % 9.93 C
393 04-09-2019 08:40:00 10.8 C 96 % 10.19 C
394 04-09-2019 08:45:00 11.1 C 96 % 10.49 C
395 04-09-2019 08:50:00 11.3 C 96 % 10.69 C
396 04-09-2019 08:55:00 11.7 C 96 % 11.08 C
397 04-09-2019 09:00:00 11.9 C 96 % 11.28 C
398 04-09-2019 09:05:00 12.2 C 96 % 11.58 C
399 04-09-2019 09:10:00 12.4 C 96 % 11.78 C
400 04-09-2019 09:15:00 12.7 C 95 % 11.92 C
Sensor: Nr:Datum:Temp:Feuchte:Taupunkt:
Aussen-T/F 401 04-09-2019 09:20:00 12.9 C 94 % 11.96 C
402 04-09-2019 09:25:00 13.1 C 92 % 11.83 C
403 04-09-2019 09:30:00 13.3 C 92 % 12.03 C
404 04-09-2019 09:35:00 13.4 C 91 % 11.96 C
405 04-09-2019 09:40:00 13.7 C 90 % 12.09 C
406 04-09-2019 09:45:00 13.8 C 89 % 12.02 C
407 04-09-2019 09:50:00 13.9 C 88 % 11.95 C
408 04-09-2019 09:55:00 14.1 C 88 % 12.14 C
409 04-09-2019 10:00:00 14.1 C 87 % 11.97 C
410 04-09-2019 10:05:00 14.2 C 87 % 12.07 C
411 04-09-2019 10:10:00 14.3 C 87 % 12.17 C
412 04-09-2019 10:15:00 14.4 C 87 % 12.27 C
413 04-09-2019 10:20:00 14.4 C 87 % 12.27 C
414 04-09-2019 10:25:00 14.4 C 87 % 12.27 C
415 04-09-2019 10:30:00 14.7 C 86 % 12.38 C
416 04-09-2019 10:35:00 14.9 C 86 % 12.58 C
417 04-09-2019 10:40:00 15.3 C 84 % 12.61 C
418 04-09-2019 10:45:00 15.7 C 83 % 12.82 C
419 04-09-2019 10:50:00 15.9 C 83 % 13.02 C
420 04-09-2019 10:55:00 16.2 C 81 % 12.94 C
421 04-09-2019 11:00:00 16.5 C 80 % 13.04 C
422 04-09-2019 11:05:00 16.8 C 79 % 13.14 C
423 04-09-2019 11:10:00 17.1 C 77 % 13.04 C
424 04-09-2019 11:15:00 17.6 C 75 % 13.12 C
425 04-09-2019 11:20:00 17.9 C 73 % 12.99 C
Sensor: Nr:Datum:Temp:Feuchte:Taupunkt:
Aussen-T/F 426 04-09-2019 11:25:00 18.2 C 72 % 13.07 C
427 04-09-2019 11:30:00 18.4 C 72 % 13.26 C
428 04-09-2019 11:35:00 18.7 C 70 % 13.12 C
429 04-09-2019 11:40:00 18.8 C 69 % 13 C
430 04-09-2019 11:45:00 18.9 C 69 % 13.09 C
431 04-09-2019 11:50:00 19.1 C 68 % 13.06 C
432 04-09-2019 11:55:00 19.1 C 68 % 13.06 C
433 04-09-2019 12:00:00 19.2 C 67 % 12.93 C
434 04-09-2019 12:05:00 19.3 C 68 % 13.25 C
435 04-09-2019 12:10:00 19.4 C 66 % 12.89 C
436 04-09-2019 12:15:00 19.5 C 67 % 13.21 C
437 04-09-2019 12:20:00 19.6 C 67 % 13.31 C
438 04-09-2019 12:25:00 19.7 C 66 % 13.17 C
439 04-09-2019 12:30:00 19.8 C 66 % 13.27 C
440 04-09-2019 12:35:00 19.9 C 66 % 13.36 C
441 04-09-2019 12:40:00 20.1 C 65 % 13.32 C
442 04-09-2019 12:45:00 20.2 C 64 % 13.18 C
443 04-09-2019 12:50:00 20.3 C 64 % 13.27 C
444 04-09-2019 12:55:00 20.4 C 65 % 13.6 C
445 04-09-2019 13:00:00 20.5 C 64 % 13.46 C
446 04-09-2019 13:05:00 20.7 C 64 % 13.65 C
447 04-09-2019 13:10:00 20.7 C 63 % 13.41 C
448 04-09-2019 13:15:00 20.8 C 64 % 13.74 C
449 04-09-2019 13:20:00 20.9 C 63 % 13.6 C
450 04-09-2019 13:25:00 21.2 C 62 % 13.63 C
Sensor: Nr:Datum:Temp:Feuchte:Taupunkt:
Aussen-T/F 451 04-09-2019 13:30:00 21.3 C 61 % 13.48 C
452 04-09-2019 13:35:00 21.4 C 61 % 13.57 C
453 04-09-2019 13:40:00 21.4 C 61 % 13.57 C
454 04-09-2019 13:45:00 21.6 C 61 % 13.76 C
455 04-09-2019 13:50:00 21.7 C 60 % 13.6 C
456 04-09-2019 13:55:00 21.8 C 60 % 13.69 C
457 04-09-2019 14:00:00 21.9 C 59 % 13.53 C
458 04-09-2019 14:05:00 22.1 C 60 % 13.98 C
459 04-09-2019 14:10:00 22.2 C 59 % 13.81 C
460 04-09-2019 14:15:00 22.2 C 58 % 13.55 C
461 04-09-2019 14:20:00 22.4 C 59 % 14 C
462 04-09-2019 14:25:00 22.5 C 58 % 13.83 C
463 04-09-2019 14:30:00 22.6 C 57 % 13.65 C
464 04-09-2019 14:35:00 22.7 C 56 % 13.47 C
465 04-09-2019 14:40:00 22.9 C 57 % 13.93 C
466 04-09-2019 14:45:00 23.1 C 56 % 13.85 C
467 04-09-2019 14:50:00 23.2 C 56 % 13.94 C
468 04-09-2019 14:55:00 23.3 C 56 % 14.03 C
469 04-09-2019 15:00:00 23.4 C 55 % 13.85 C
470 04-09-2019 15:05:00 23.4 C 56 % 14.13 C
471 04-09-2019 15:10:00 23.7 C 53 % 13.56 C
472 04-09-2019 15:15:00 23.7 C 54 % 13.84 C
473 04-09-2019 15:20:00 23.7 C 53 % 13.56 C
474 04-09-2019 15:25:00 23.7 C 54 % 13.84 C
475 04-09-2019 15:30:00 23.9 C 53 % 13.74 C
Sensor: Nr:Datum:Temp:Feuchte:Taupunkt:
Aussen-T/F 476 04-09-2019 15:35:00 24 C 53 % 13.83 C
477 04-09-2019 15:40:00 24.1 C 52 % 13.63 C
478 04-09-2019 15:45:00 24.1 C 53 % 13.93 C
479 04-09-2019 15:50:00 24.1 C 53 % 13.93 C
480 04-09-2019 15:55:00 24.4 C 53 % 14.2 C
481 04-09-2019 16:00:00 24.5 C 51 % 13.7 C
482 04-09-2019 16:05:00 24.4 C 53 % 14.2 C
483 04-09-2019 16:10:00 24.6 C 53 % 14.39 C
484 04-09-2019 16:15:00 24.7 C 53 % 14.48 C
485 04-09-2019 16:20:00 24.8 C 52 % 14.28 C
486 04-09-2019 16:25:00 24.9 C 51 % 14.07 C
487 04-09-2019 16:30:00 25.1 C 51 % 14.25 C
488 04-09-2019 16:35:00 25.4 C 50 % 14.22 C
489 04-09-2019 16:40:00 25.7 C 48 % 13.87 C
490 04-09-2019 16:45:00 25.7 C 49 % 14.19 C
491 04-09-2019 16:50:00 25.7 C 49 % 14.19 C
492 04-09-2019 16:55:00 25.9 C 48 % 14.05 C
493 04-09-2019 17:00:00 26.2 C 48 % 14.32 C
494 04-09-2019 17:05:00 26.5 C 48 % 14.6 C
495 04-09-2019 17:10:00 26.8 C 47 % 14.55 C
496 04-09-2019 17:15:00 26.8 C 46 % 14.21 C
497 04-09-2019 17:20:00 27 C 44 % 13.71 C
498 04-09-2019 17:25:00 27.1 C 45 % 14.15 C
499 04-09-2019 17:30:00 27.3 C 44 % 13.98 C
500 04-09-2019 17:35:00 27.1 C 44 % 13.8 C
Sensor: Nr:Datum:Temp:Feuchte:Taupunkt:
Aussen-T/F 501 04-09-2019 17:40:00 27.1 C 42 % 13.09 C
502 04-09-2019 17:45:00 26.9 C 43 % 13.27 C
503 04-09-2019 17:50:00 26.9 C 43 % 13.27 C
504 04-09-2019 17:55:00 26.8 C 44 % 13.53 C
505 04-09-2019 18:00:00 26.6 C 44 % 13.35 C
506 04-09-2019 18:05:00 26.2 C 43 % 12.64 C
507 04-09-2019 18:10:00 25.8 C 44 % 12.63 C
508 04-09-2019 18:15:00 25.4 C 46 % 12.94 C
509 04-09-2019 18:20:00 25.1 C 48 % 13.32 C
510 04-09-2019 18:25:00 24.9 C 47 % 12.82 C
511 04-09-2019 18:30:00 24.8 C 47 % 12.73 C
512 04-09-2019 18:35:00 24.6 C 48 % 12.87 C
513 04-09-2019 18:40:00 24.4 C 49 % 13 C
514 04-09-2019 18:45:00 24.3 C 49 % 12.91 C
515 04-09-2019 18:50:00 24.2 C 50 % 13.12 C
516 04-09-2019 18:55:00 24.2 C 49 % 12.81 C
517 04-09-2019 19:00:00 24.2 C 50 % 13.12 C
518 04-09-2019 19:05:00 24.1 C 50 % 13.03 C
519 04-09-2019 19:10:00 24 C 51 % 13.24 C
520 04-09-2019 19:15:00 23.9 C 51 % 13.15 C
521 04-09-2019 19:20:00 23.8 C 51 % 13.06 C
522 04-09-2019 19:25:00 23.7 C 52 % 13.26 C
523 04-09-2019 19:30:00 23.6 C 51 % 12.88 C
524 04-09-2019 19:35:00 23.6 C 52 % 13.17 C
525 04-09-2019 19:40:00 23.4 C 53 % 13.28 C
Sensor: Nr:Datum:Temp:Feuchte:Taupunkt:
Aussen-T/F 526 04-09-2019 19:45:00 23.3 C 54 % 13.47 C
527 04-09-2019 19:50:00 23.1 C 54 % 13.29 C
528 04-09-2019 19:55:00 22.3 C 58 % 13.64 C
529 04-09-2019 20:00:00 21.4 C 61 % 13.57 C
530 04-09-2019 20:05:00 20.8 C 63 % 13.5 C
531 04-09-2019 20:10:00 20.4 C 65 % 13.6 C
532 04-09-2019 20:15:00 20 C 67 % 13.69 C
533 04-09-2019 20:20:00 19.7 C 69 % 13.86 C
534 04-09-2019 20:25:00 19.6 C 70 % 13.98 C
535 04-09-2019 20:30:00 19.5 C 70 % 13.89 C
536 04-09-2019 20:35:00 19.4 C 71 % 14.01 C
537 04-09-2019 20:40:00 19.3 C 71 % 13.91 C
538 04-09-2019 20:45:00 19.3 C 73 % 14.34 C
539 04-09-2019 20:50:00 19.3 C 76 % 14.97 C
540 04-09-2019 20:55:00 19.1 C 77 % 14.97 C
541 04-09-2019 21:00:00 18.8 C 79 % 15.08 C
542 04-09-2019 21:05:00 18.6 C 81 % 15.28 C
543 04-09-2019 21:10:00 18.3 C 82 % 15.17 C
544 04-09-2019 21:15:00 18.1 C 84 % 15.35 C
545 04-09-2019 21:20:00 17.9 C 85 % 15.34 C
546 04-09-2019 21:25:00 17.6 C 85 % 15.05 C
547 04-09-2019 21:30:00 17.4 C 86 % 15.03 C
548 04-09-2019 21:35:00 17.3 C 87 % 15.12 C
549 04-09-2019 21:40:00 17.1 C 87 % 14.92 C
550 04-09-2019 21:45:00 16.9 C 88 % 14.9 C
Sensor: Nr:Datum:Temp:Feuchte:Taupunkt:
Aussen-T/F 551 04-09-2019 21:50:00 16.8 C 88 % 14.8 C
552 04-09-2019 21:55:00 16.7 C 88 % 14.7 C
553 04-09-2019 22:00:00 16.7 C 89 % 14.88 C
554 04-09-2019 22:05:00 16.6 C 89 % 14.78 C
555 04-09-2019 22:10:00 16.6 C 90 % 14.95 C
556 04-09-2019 22:15:00 16.4 C 90 % 14.76 C
557 04-09-2019 22:20:00 16.4 C 90 % 14.76 C
558 04-09-2019 22:25:00 16.3 C 90 % 14.66 C
559 04-09-2019 22:30:00 16.2 C 91 % 14.73 C
560 04-09-2019 22:35:00 16.2 C 91 % 14.73 C
561 04-09-2019 22:40:00 16.2 C 91 % 14.73 C
562 04-09-2019 22:45:00 16.1 C 91 % 14.63 C
563 04-09-2019 22:50:00 15.9 C 91 % 14.43 C
564 04-09-2019 22:55:00 15.8 C 91 % 14.33 C
565 04-09-2019 23:00:00 15.8 C 90 % 14.16 C
566 04-09-2019 23:05:00 15.7 C 91 % 14.24 C
567 04-09-2019 23:10:00 15.7 C 91 % 14.24 C
568 04-09-2019 23:15:00 15.7 C 91 % 14.24 C
569 04-09-2019 23:20:00 15.6 C 91 % 14.14 C
570 04-09-2019 23:25:00 15.6 C 91 % 14.14 C
571 04-09-2019 23:30:00 15.6 C 91 % 14.14 C
572 04-09-2019 23:35:00 15.6 C 91 % 14.14 C
573 04-09-2019 23:40:00 15.6 C 91 % 14.14 C
574 04-09-2019 23:45:00 15.6 C 91 % 14.14 C
575 04-09-2019 23:50:00 15.6 C 91 % 14.14 C
Sensor: Nr:Datum:Temp:Feuchte:Taupunkt:
Aussen-T/F 576 04-09-2019 23:55:00 15.6 C 91 % 14.14 C

Legende:
   Min
   Max


Maximal/Minimal-Werte vom 03.09.2019 - 04.09.2019

Sensor Min Max Avg
Temp
(Aussen-T/F)
8.5 °C
03-09-2019  07:00:00
27.3 °C
04-09-2019  17:30:00
16.26 °C
Feuchte
(Aussen-T/F)
42 %
04-09-2019  17:40:00
96 %
04-09-2019  08:40:00
73.74 %
Taupunkt
(Aussen-T/F)
6.63 C
03-09-2019  07:00:00
15.35 C
04-09-2019  21:15:00
11.02 C

Die Daten stammen von einer Davis Vantage Pro 2 Wetter-Station und werden unter Linux mit der Software wview2wettercgi und aufbereitet. Alle Angaben erfolgen ohne Gewähr für ihre Vollständigkeit oder Richtigkeit.
Kontakt: Rainer Krienke krienke@uni-koblenz.de . Meine Webseiten an der Uni Koblenz oder privat.
Version: $Revision: 0.78 $